< < Back
Terminal Aerodrome Forecast


Current Version              Previous Versions:   1  2  3  4  5  6  7  8  9  

Terminal Aerodrome Forecast

009
FTUS42 KTAE 281700
TAFDHN
TAF
KDHN 281732Z 2818/0118 07012KT P6SM OVC025
     FM282100 07010KT P6SM OVC015
     FM010500 07009KT P6SM OVC006
     FM010800 07009KT 5SM BR OVC004
     FM011400 07008KT P6SM OVC008=

Latest METAR

204
SAUS70 KWBC 282300 RRN
MTRDHN
METAR KDHN 282253Z 09008KT 2SM BR SCT007 OVC012 09/08 A3045 RMK AO2
SLP311 T00940083


USA.gov is the U.S. government's official web portal to all federal, state and local government web resources and services.